SBOSBO PSA / LIRP
Speedbird OnlineSpeedbird Online PSA / LIRP

Pisa International Airport
11:43 25.5°C

Location Pisa, Italy
Latitude: 43.683899
Longitude: 10.3927
Local Time 11:43 on 17 Jun 2024
UTC +2 hours (Europe/Rome)
Currency £1 equals EUR 1.19
METAR LIRP 170915Z 10002KT CAVOK 25/14 Q1017 NOSIG
TAF TAF LIRP 170500Z 1706/1806 15006KT CAVOK BECMG 1710/1712 28008KT
Weather As Of 17 Jun 2024 11:43
Description Clear sky
Wind 4 km/h from East (100°)
Cloud Cover 0%
Precipitation Rain: none, Snow: none
Sunrise 05:36
Sunset 21:02
NOTAM 40 active NOTAM
Rotations During the last 90 days there were
128 flights from LHR
134 flights to LHR
1 flights to LCY
Lounges Sala VIP Galilei Lounge (Temporarily Closed), Terminal 1, 1st Floor, Departure Hall
Web Airport Website | Wikipedia
Codes IATA: PSA
ICAO: LIRP
Altitude 2 Meter / 6 Feet
Distance 1,159 KM / 720 Miles
from London.
Runways
RunwayLength (m)Surface
04L2792Asphalt
04R2993Asphalt
22L2993Asphalt
22R2792Asphalt
Radio
TypeDescriptionFrequency
APPAPP122.1
GNDGND121.6
TWRTWR119.1
Live ATC



Support Speedbird Online

© 2017-2024 Speedbird Online